sensor_id;sensor_type;location;lat;lon;timestamp;pressure;altitude;pressure_sealevel;temperature;humidity
16694;BME280;39538;52.196;9.892;2022-08-03T00:00:16;100580.38;;;21.08;66.11
16694;BME280;39538;52.196;9.892;2022-08-03T00:02:43;100574.81;;;21.10;66.00
16694;BME280;39538;52.196;9.892;2022-08-03T00:05:09;100586.38;;;20.87;66.20
16694;BME280;39538;52.196;9.892;2022-08-03T00:07:37;100574.88;;;20.93;66.33
16694;BME280;39538;52.196;9.892;2022-08-03T00:10:05;100577.38;;;21.03;65.71
16694;BME280;39538;52.196;9.892;2022-08-03T00:12:32;100574.16;;;20.99;66.17
16694;BME280;39538;52.196;9.892;2022-08-03T00:15:00;100575.56;;;20.87;66.36
16694;BME280;39538;52.196;9.892;2022-08-03T00:17:27;100573.22;;;20.84;66.84
16694;BME280;39538;52.196;9.892;2022-08-03T00:19:53;100568.00;;;20.74;67.07
16694;BME280;39538;52.196;9.892;2022-08-03T00:22:20;100568.38;;;20.71;67.50
16694;BME280;39538;52.196;9.892;2022-08-03T00:24:47;100572.94;;;20.62;67.99
16694;BME280;39538;52.196;9.892;2022-08-03T00:27:14;100569.41;;;20.62;67.98
16694;BME280;39538;52.196;9.892;2022-08-03T00:29:40;100571.44;;;20.60;68.12
16694;BME280;39538;52.196;9.892;2022-08-03T00:32:07;100570.59;;;20.68;67.90
16694;BME280;39538;52.196;9.892;2022-08-03T00:34:33;100573.75;;;20.71;67.50
16694;BME280;39538;52.196;9.892;2022-08-03T00:37:00;100572.25;;;20.69;67.39
16694;BME280;39538;52.196;9.892;2022-08-03T00:39:26;100565.03;;;20.61;67.77
16694;BME280;39538;52.196;9.892;2022-08-03T00:41:54;100568.56;;;20.61;67.91
16694;BME280;39538;52.196;9.892;2022-08-03T00:44:20;100566.53;;;20.63;67.68
16694;BME280;39538;52.196;9.892;2022-08-03T00:46:47;100565.03;;;20.61;67.98
16694;BME280;39538;52.196;9.892;2022-08-03T00:49:13;100565.19;;;20.59;67.72
16694;BME280;39538;52.196;9.892;2022-08-03T00:51:39;100568.06;;;20.58;67.67
16694;BME280;39538;52.196;9.892;2022-08-03T00:54:06;100559.97;;;20.66;67.66
16694;BME280;39538;52.196;9.892;2022-08-03T00:56:32;100567.06;;;20.59;67.72
16694;BME280;39538;52.196;9.892;2022-08-03T00:59:00;100566.03;;;20.60;67.91
16694;BME280;39538;52.196;9.892;2022-08-03T01:01:28;100562.00;;;20.48;68.49
16694;BME280;39538;52.196;9.892;2022-08-03T01:03:54;100559.50;;;20.30;69.19
16694;BME280;39538;52.196;9.892;2022-08-03T01:06:26;100563.03;;;20.30;68.82
16694;BME280;39538;52.196;9.892;2022-08-03T01:09:01;100561.00;;;20.32;69.06
16694;BME280;39538;52.196;9.892;2022-08-03T01:11:34;100550.56;;;20.29;68.85
16694;BME280;39538;52.196;9.892;2022-08-03T01:14:08;100555.63;;;20.24;68.75
16694;BME280;39538;52.196;9.892;2022-08-03T01:16:40;100553.63;;;20.18;69.34
16694;BME280;39538;52.196;9.892;2022-08-03T01:19:21;100562.22;;;20.05;70.37
16694;BME280;39538;52.196;9.892;2022-08-03T01:21:59;100566.25;;;19.93;71.23
16694;BME280;39538;52.196;9.892;2022-08-03T01:24:34;100556.84;;;19.89;71.44
16694;BME280;39538;52.196;9.892;2022-08-03T01:27:04;100562.88;;;19.83;71.70
16694;BME280;39538;52.196;9.892;2022-08-03T01:29:49;100562.91;;;19.74;72.19
16694;BME280;39538;52.196;9.892;2022-08-03T01:32:20;100553.94;;;19.74;72.25
16694;BME280;39538;52.196;9.892;2022-08-03T01:34:51;100558.16;;;19.76;72.23
16694;BME280;39538;52.196;9.892;2022-08-03T01:37:25;100551.75;;;19.69;72.36
16694;BME280;39538;52.196;9.892;2022-08-03T01:39:55;100559.69;;;19.71;72.51
16694;BME280;39538;52.196;9.892;2022-08-03T01:42:24;100554.16;;;19.72;72.80
16694;BME280;39538;52.196;9.892;2022-08-03T01:44:53;100556.63;;;19.66;72.81
16694;BME280;39538;52.196;9.892;2022-08-03T01:47:22;100557.28;;;19.59;72.85
16694;BME280;39538;52.196;9.892;2022-08-03T01:49:51;100562.84;;;19.58;72.53
16694;BME280;39538;52.196;9.892;2022-08-03T01:52:20;100554.41;;;19.53;72.33
16694;BME280;39538;52.196;9.892;2022-08-03T01:54:48;100541.78;;;19.45;72.84
16694;BME280;39538;52.196;9.892;2022-08-03T01:57:16;100552.88;;;19.42;72.73
16694;BME280;39538;52.196;9.892;2022-08-03T01:59:46;100552.69;;;19.44;72.99
16694;BME280;39538;52.196;9.892;2022-08-03T02:02:16;100552.41;;;19.47;72.98
16694;BME280;39538;52.196;9.892;2022-08-03T02:04:43;100553.72;;;19.51;72.33
16694;BME280;39538;52.196;9.892;2022-08-03T02:07:13;100561.47;;;19.46;72.33
16694;BME280;39538;52.196;9.892;2022-08-03T02:09:43;100555.06;;;19.38;72.58
16694;BME280;39538;52.196;9.892;2022-08-03T02:12:11;100550.34;;;19.32;72.78
16694;BME280;39538;52.196;9.892;2022-08-03T02:14:40;100547.97;;;19.29;72.66
16694;BME280;39538;52.196;9.892;2022-08-03T02:17:07;100552.69;;;19.35;72.67
16694;BME280;39538;52.196;9.892;2022-08-03T02:19:36;100555.72;;;19.32;72.58
16694;BME280;39538;52.196;9.892;2022-08-03T02:22:04;100556.72;;;19.31;72.56
16694;BME280;39538;52.196;9.892;2022-08-03T02:24:33;100550.34;;;19.32;72.51
16694;BME280;39538;52.196;9.892;2022-08-03T02:27:00;100545.81;;;19.33;72.51
16694;BME280;39538;52.196;9.892;2022-08-03T02:29:31;100548.66;;;19.31;72.84
16694;BME280;39538;52.196;9.892;2022-08-03T02:31:59;100544.59;;;19.27;72.80
16694;BME280;39538;52.196;9.892;2022-08-03T02:34:29;100543.91;;;19.25;72.85
16694;BME280;39538;52.196;9.892;2022-08-03T02:37:00;100544.78;;;19.26;72.48
16694;BME280;39538;52.196;9.892;2022-08-03T02:39:30;100542.41;;;19.23;72.89
16694;BME280;39538;52.196;9.892;2022-08-03T02:41:59;100537.88;;;19.31;72.85
16694;BME280;39538;52.196;9.892;2022-08-03T02:44:29;100537.22;;;19.37;72.41
16694;BME280;39538;52.196;9.892;2022-08-03T02:47:01;100535.72;;;19.35;72.45
16694;BME280;39538;52.196;9.892;2022-08-03T02:49:28;100533.53;;;19.38;72.40
16694;BME280;39538;52.196;9.892;2022-08-03T02:51:56;100529.31;;;19.36;72.49
16694;BME280;39538;52.196;9.892;2022-08-03T02:54:25;100531.50;;;19.32;72.77
16694;BME280;39538;52.196;9.892;2022-08-03T02:56:53;100534.69;;;19.36;72.85
16694;BME280;39538;52.196;9.892;2022-08-03T02:59:22;100531.16;;;19.35;72.95
16694;BME280;39538;52.196;9.892;2022-08-03T03:01:50;100531.31;;;19.34;73.07
16694;BME280;39538;52.196;9.892;2022-08-03T03:04:19;100532.69;;;19.38;72.88
16694;BME280;39538;52.196;9.892;2022-08-03T03:06:47;100537.91;;;19.40;72.78
16694;BME280;39538;52.196;9.892;2022-08-03T03:09:15;100524.94;;;19.35;73.48
16694;BME280;39538;52.196;9.892;2022-08-03T03:11:44;100527.13;;;19.31;73.38
16694;BME280;39538;52.196;9.892;2022-08-03T03:14:12;100529.66;;;19.33;73.29
16694;BME280;39538;52.196;9.892;2022-08-03T03:16:40;100521.72;;;19.31;73.32
16694;BME280;39538;52.196;9.892;2022-08-03T03:19:07;100524.44;;;19.31;73.17
16694;BME280;39538;52.196;9.892;2022-08-03T03:21:36;100524.47;;;19.40;72.84
16694;BME280;39538;52.196;9.892;2022-08-03T03:24:04;100523.09;;;19.35;72.85
16694;BME280;39538;52.196;9.892;2022-08-03T03:26:32;100530.00;;;19.38;72.71
16694;BME280;39538;52.196;9.892;2022-08-03T03:29:01;100527.47;;;19.36;72.82
16694;BME280;39538;52.196;9.892;2022-08-03T03:31:28;100527.13;;;19.31;73.03
16694;BME280;39538;52.196;9.892;2022-08-03T03:33:56;100531.66;;;19.31;72.98
16694;BME280;39538;52.196;9.892;2022-08-03T03:36:23;100530.81;;;19.30;73.04
16694;BME280;39538;52.196;9.892;2022-08-03T03:38:49;100527.66;;;19.35;72.80
16694;BME280;39538;52.196;9.892;2022-08-03T03:41:16;100527.13;;;19.31;72.63
16694;BME280;39538;52.196;9.892;2022-08-03T03:43:43;100531.66;;;19.31;72.35
16694;BME280;39538;52.196;9.892;2022-08-03T03:46:12;100531.81;;;19.21;72.88
16694;BME280;39538;52.196;9.892;2022-08-03T03:48:39;100526.44;;;19.21;72.47
16694;BME280;39538;52.196;9.892;2022-08-03T03:51:06;100532.50;;;19.23;72.04
16694;BME280;39538;52.196;9.892;2022-08-03T03:53:32;100536.03;;;19.24;72.08
16694;BME280;39538;52.196;9.892;2022-08-03T03:55:59;100533.50;;;19.22;72.57
16694;BME280;39538;52.196;9.892;2022-08-03T03:58:25;100536.03;;;19.24;72.66
16694;BME280;39538;52.196;9.892;2022-08-03T04:00:52;100533.09;;;19.09;73.05
16694;BME280;39538;52.196;9.892;2022-08-03T04:03:20;100533.78;;;19.03;73.30
16694;BME280;39538;52.196;9.892;2022-08-03T04:05:47;100529.56;;;19.08;72.85
16694;BME280;39538;52.196;9.892;2022-08-03T04:08:31;100536.28;;;19.04;72.92
16694;BME280;39538;52.196;9.892;2022-08-03T04:11:18;100538.31;;;19.02;73.07
16694;BME280;39538;52.196;9.892;2022-08-03T04:13:49;100539.31;;;19.01;72.99
16694;BME280;39538;52.196;9.892;2022-08-03T04:16:18;100534.75;;;18.93;73.39
16694;BME280;39538;52.196;9.892;2022-08-03T04:18:52;100539.44;;;18.91;73.54
16694;BME280;39538;52.196;9.892;2022-08-03T04:21:21;100532.75;;;18.95;73.80
16694;BME280;39538;52.196;9.892;2022-08-03T04:23:52;100543.16;;;18.90;73.93
16694;BME280;39538;52.196;9.892;2022-08-03T04:26:21;100538.91;;;18.88;74.13
16694;BME280;39538;52.196;9.892;2022-08-03T04:28:50;100543.31;;;18.89;74.46
16694;BME280;39538;52.196;9.892;2022-08-03T04:31:19;100544.28;;;18.88;74.98
16694;BME280;39538;52.196;9.892;2022-08-03T04:33:50;100549.19;;;18.92;75.30
16694;BME280;39538;52.196;9.892;2022-08-03T04:36:20;100551.25;;;18.99;74.71
16694;BME280;39538;52.196;9.892;2022-08-03T04:38:54;100550.91;;;19.02;74.18
16694;BME280;39538;52.196;9.892;2022-08-03T04:41:23;100555.97;;;19.05;73.61
16694;BME280;39538;52.196;9.892;2022-08-03T04:43:52;100548.91;;;19.04;74.02
16694;BME280;39538;52.196;9.892;2022-08-03T04:46:22;100550.94;;;19.10;74.07
16694;BME280;39538;52.196;9.892;2022-08-03T04:48:50;100547.59;;;19.16;73.85
16694;BME280;39538;52.196;9.892;2022-08-03T04:51:17;100551.81;;;19.19;73.74
16694;BME280;39538;52.196;9.892;2022-08-03T04:53:43;100546.44;;;19.27;73.12
16694;BME280;39538;52.196;9.892;2022-08-03T04:56:10;100544.09;;;19.32;73.18
16694;BME280;39538;52.196;9.892;2022-08-03T04:58:37;100555.06;;;19.38;73.78
16694;BME280;39538;52.196;9.892;2022-08-03T05:01:03;100561.13;;;19.41;74.13
16694;BME280;39538;52.196;9.892;2022-08-03T05:03:30;100559.78;;;19.45;74.11
16694;BME280;39538;52.196;9.892;2022-08-03T05:05:58;100554.25;;;19.54;74.34
16694;BME280;39538;52.196;9.892;2022-08-03T05:08:24;100563.69;;;19.58;74.51
16694;BME280;39538;52.196;9.892;2022-08-03T05:10:51;100569.06;;;19.67;74.71
16694;BME280;39538;52.196;9.892;2022-08-03T05:13:17;100573.81;;;19.73;75.04
16694;BME280;39538;52.196;9.892;2022-08-03T05:15:44;100567.25;;;19.75;75.04
16694;BME280;39538;52.196;9.892;2022-08-03T05:18:10;100568.94;;;19.76;74.91
16694;BME280;39538;52.196;9.892;2022-08-03T05:20:37;100570.97;;;19.83;74.82
16694;BME280;39538;52.196;9.892;2022-08-03T05:23:05;100574.69;;;19.90;75.08
16694;BME280;39538;52.196;9.892;2022-08-03T05:25:32;100564.41;;;19.93;74.87
16694;BME280;39538;52.196;9.892;2022-08-03T05:27:58;100562.41;;;19.95;75.04
16694;BME280;39538;52.196;9.892;2022-08-03T05:30:25;100570.81;;;20.00;75.06
16694;BME280;39538;52.196;9.892;2022-08-03T05:32:51;100568.28;;;20.07;74.35
16694;BME280;39538;52.196;9.892;2022-08-03T05:35:18;100558.84;;;20.11;73.99
16694;BME280;39538;52.196;9.892;2022-08-03T05:37:44;100568.13;;;20.17;73.77
16694;BME280;39538;52.196;9.892;2022-08-03T05:40:13;100570.09;;;20.23;73.24
16694;BME280;39538;52.196;9.892;2022-08-03T05:42:39;100556.97;;;20.28;72.41
16694;BME280;39538;52.196;9.892;2022-08-03T05:45:06;100557.97;;;20.35;72.14
16694;BME280;39538;52.196;9.892;2022-08-03T05:47:39;100558.31;;;20.40;71.95
16694;BME280;39538;52.196;9.892;2022-08-03T05:50:07;100553.06;;;20.47;72.29
16694;BME280;39538;52.196;9.892;2022-08-03T05:52:33;100563.81;;;20.55;72.01
16694;BME280;39538;52.196;9.892;2022-08-03T05:55:00;100552.03;;;20.65;71.41
16694;BME280;39538;52.196;9.892;2022-08-03T05:57:27;100559.09;;;20.74;71.16
16694;BME280;39538;52.196;9.892;2022-08-03T05:59:54;100559.22;;;20.89;71.28
16694;BME280;39538;52.196;9.892;2022-08-03T06:02:20;100562.00;;;21.03;71.08
16694;BME280;39538;52.196;9.892;2022-08-03T06:04:46;100568.88;;;21.14;70.87
16694;BME280;39538;52.196;9.892;2022-08-03T06:07:13;100564.94;;;21.25;70.44
16694;BME280;39538;52.196;9.892;2022-08-03T06:09:39;100557.94;;;21.39;70.25
16694;BME280;39538;52.196;9.892;2022-08-03T06:12:06;100561.41;;;21.56;70.09
16694;BME280;39538;52.196;9.892;2022-08-03T06:14:34;100563.81;;;21.74;70.13
16694;BME280;39538;52.196;9.892;2022-08-03T06:17:00;100563.50;;;21.92;68.85
16694;BME280;39538;52.196;9.892;2022-08-03T06:19:27;100562.34;;;22.09;68.70
16694;BME280;39538;52.196;9.892;2022-08-03T06:21:53;100567.28;;;22.28;68.83
16694;BME280;39538;52.196;9.892;2022-08-03T06:24:19;100559.94;;;22.52;68.39
16694;BME280;39538;52.196;9.892;2022-08-03T06:26:46;100566.94;;;22.61;62.44
16694;BME280;39538;52.196;9.892;2022-08-03T06:29:12;100563.47;;;22.82;62.40
16694;BME280;39538;52.196;9.892;2022-08-03T06:31:40;100560.41;;;23.00;61.01
16694;BME280;39538;52.196;9.892;2022-08-03T06:34:06;100564.66;;;23.24;61.26
16694;BME280;39538;52.196;9.892;2022-08-03T06:36:33;100562.00;;;23.31;62.36
16694;BME280;39538;52.196;9.892;2022-08-03T06:39:00;100566.56;;;23.45;60.73
16694;BME280;39538;52.196;9.892;2022-08-03T06:41:27;100575.34;;;23.69;59.52
16694;BME280;39538;52.196;9.892;2022-08-03T06:43:54;100571.63;;;23.91;59.29
16694;BME280;39538;52.196;9.892;2022-08-03T06:46:20;100577.06;;;24.13;57.95
16694;BME280;39538;52.196;9.892;2022-08-03T06:48:48;100587.50;;;24.16;57.51
16694;BME280;39538;52.196;9.892;2022-08-03T06:51:15;100578.00;;;24.27;55.62
16694;BME280;39538;52.196;9.892;2022-08-03T06:53:41;100580.13;;;24.38;55.46
16694;BME280;39538;52.196;9.892;2022-08-03T06:56:08;100589.50;;;24.57;55.94
16694;BME280;39538;52.196;9.892;2022-08-03T06:58:35;100580.00;;;24.74;54.56
16694;BME280;39538;52.196;9.892;2022-08-03T07:01:01;100583.63;;;24.88;55.27
16694;BME280;39538;52.196;9.892;2022-08-03T07:03:28;100591.06;;;25.14;55.34
16694;BME280;39538;52.196;9.892;2022-08-03T07:05:56;100580.09;;;25.36;53.44
16694;BME280;39538;52.196;9.892;2022-08-03T07:08:22;100589.78;;;25.58;54.21
16694;BME280;39538;52.196;9.892;2022-08-03T07:10:49;100586.00;;;25.59;51.44
16694;BME280;39538;52.196;9.892;2022-08-03T07:13:15;100589.59;;;25.67;51.46
16694;BME280;39538;52.196;9.892;2022-08-03T07:15:42;100591.47;;;25.73;49.75
16694;BME280;39538;52.196;9.892;2022-08-03T07:18:08;100590.03;;;25.77;51.33
16694;BME280;39538;52.196;9.892;2022-08-03T07:20:35;100596.13;;;25.85;50.83
16694;BME280;39538;52.196;9.892;2022-08-03T07:23:03;100591.97;;;26.03;50.86
16694;BME280;39538;52.196;9.892;2022-08-03T07:25:29;100595.13;;;26.13;50.11
16694;BME280;39538;52.196;9.892;2022-08-03T07:27:55;100598.47;;;26.35;49.45
16694;BME280;39538;52.196;9.892;2022-08-03T07:30:22;100601.38;;;26.40;48.70
16694;BME280;39538;52.196;9.892;2022-08-03T07:32:48;100613.75;;;26.63;49.96
16694;BME280;39538;52.196;9.892;2022-08-03T07:35:15;100602.66;;;26.58;47.26
16694;BME280;39538;52.196;9.892;2022-08-03T07:37:41;100598.66;;;26.67;48.00
16694;BME280;39538;52.196;9.892;2022-08-03T07:40:09;100605.13;;;26.73;48.23
16694;BME280;39538;52.196;9.892;2022-08-03T07:42:36;100600.94;;;26.83;47.98
16694;BME280;39538;52.196;9.892;2022-08-03T07:45:02;100605.50;;;26.96;46.21
16694;BME280;39538;52.196;9.892;2022-08-03T07:47:30;100604.38;;;27.17;46.59
16694;BME280;39538;52.196;9.892;2022-08-03T07:49:56;100599.94;;;27.29;46.49
16694;BME280;39538;52.196;9.892;2022-08-03T07:52:23;100603.00;;;27.53;46.47
16694;BME280;39538;52.196;9.892;2022-08-03T07:55:07;100595.34;;;27.68;46.68
16694;BME280;39538;52.196;9.892;2022-08-03T07:57:35;100599.75;;;27.69;44.35
16694;BME280;39538;52.196;9.892;2022-08-03T08:00:04;100591.47;;;27.83;45.31
16694;BME280;39538;52.196;9.892;2022-08-03T08:02:31;100598.22;;;28.12;46.68
16694;BME280;39538;52.196;9.892;2022-08-03T08:04:57;100596.03;;;28.21;45.18
16694;BME280;39538;52.196;9.892;2022-08-03T08:07:24;100601.25;;;28.22;43.73
16694;BME280;39538;52.196;9.892;2022-08-03T08:09:50;100595.53;;;28.30;43.50
16694;BME280;39538;52.196;9.892;2022-08-03T08:12:17;100603.00;;;28.42;44.12
16694;BME280;39538;52.196;9.892;2022-08-03T08:14:44;100593.00;;;28.79;45.53
16694;BME280;39538;52.196;9.892;2022-08-03T08:17:11;100600.09;;;28.80;43.75
16694;BME280;39538;52.196;9.892;2022-08-03T08:19:37;100595.63;;;28.67;42.74
16694;BME280;39538;52.196;9.892;2022-08-03T08:22:04;100591.31;;;28.96;43.57
16694;BME280;39538;52.196;9.892;2022-08-03T08:24:30;100583.25;;;29.02;42.25
16694;BME280;39538;52.196;9.892;2022-08-03T08:26:58;100590.75;;;28.69;42.93
16694;BME280;39538;52.196;9.892;2022-08-03T08:29:25;100597.59;;;28.35;42.37
16694;BME280;39538;52.196;9.892;2022-08-03T08:31:53;100592.13;;;28.35;43.71
16694;BME280;39538;52.196;9.892;2022-08-03T08:34:19;100596.00;;;28.71;45.74
16694;BME280;39538;52.196;9.892;2022-08-03T08:36:46;100601.34;;;28.84;42.26
16694;BME280;39538;52.196;9.892;2022-08-03T08:39:12;100588.25;;;29.23;45.00
16694;BME280;39538;52.196;9.892;2022-08-03T08:41:38;100587.56;;;29.76;44.44
16694;BME280;39538;52.196;9.892;2022-08-03T08:44:05;100586.13;;;30.28;42.96
16694;BME280;39538;52.196;9.892;2022-08-03T08:46:34;100592.31;;;30.70;41.92
16694;BME280;39538;52.196;9.892;2022-08-03T08:49:06;100600.56;;;31.22;40.90
16694;BME280;39538;52.196;9.892;2022-08-03T08:51:34;100588.19;;;31.77;40.50
16694;BME280;39538;52.196;9.892;2022-08-03T08:54:06;100594.03;;;31.81;38.44
16694;BME280;39538;52.196;9.892;2022-08-03T08:56:34;100590.25;;;31.70;39.89
16694;BME280;39538;52.196;9.892;2022-08-03T08:59:02;100598.69;;;31.52;38.79
16694;BME280;39538;52.196;9.892;2022-08-03T09:01:29;100590.44;;;31.80;38.88
16694;BME280;39538;52.196;9.892;2022-08-03T09:03:55;100597.78;;;31.91;37.54
16694;BME280;39538;52.196;9.892;2022-08-03T09:06:23;100594.22;;;32.25;37.83
16694;BME280;39538;52.196;9.892;2022-08-03T09:08:50;100589.81;;;32.24;37.36
16694;BME280;39538;52.196;9.892;2022-08-03T09:11:20;100582.84;;;32.16;37.59
16694;BME280;39538;52.196;9.892;2022-08-03T09:13:46;100583.44;;;32.74;37.77
16694;BME280;39538;52.196;9.892;2022-08-03T09:16:15;100583.34;;;33.08;36.50
16694;BME280;39538;52.196;9.892;2022-08-03T09:18:43;100586.19;;;32.74;36.17
16694;BME280;39538;52.196;9.892;2022-08-03T09:21:22;100588.28;;;32.89;35.66
16694;BME280;39538;52.196;9.892;2022-08-03T09:23:51;100586.81;;;33.47;36.75
16694;BME280;39538;52.196;9.892;2022-08-03T09:26:22;100593.66;;;33.67;34.79
16694;BME280;39538;52.196;9.892;2022-08-03T09:28:57;100586.75;;;33.15;34.55
16694;BME280;39538;52.196;9.892;2022-08-03T09:31:31;100586.28;;;33.23;36.04
16694;BME280;39538;52.196;9.892;2022-08-03T09:34:01;100591.19;;;33.43;36.22
16694;BME280;39538;52.196;9.892;2022-08-03T09:36:35;100590.81;;;33.12;35.81
16694;BME280;39538;52.196;9.892;2022-08-03T09:39:05;100586.13;;;32.91;36.32
16694;BME280;39538;52.196;9.892;2022-08-03T09:41:35;100587.03;;;32.96;36.11
16694;BME280;39538;52.196;9.892;2022-08-03T09:44:01;100585.63;;;32.94;35.66
16694;BME280;39538;52.196;9.892;2022-08-03T09:46:28;100584.19;;;32.69;35.81
16694;BME280;39538;52.196;9.892;2022-08-03T09:49:08;100594.72;;;33.38;35.71
16694;BME280;39538;52.196;9.892;2022-08-03T09:51:35;100592.72;;;33.83;35.49
16694;BME280;39538;52.196;9.892;2022-08-03T09:54:04;100589.97;;;33.83;34.40
16694;BME280;39538;52.196;9.892;2022-08-03T09:56:42;100588.25;;;34.47;35.02
16694;BME280;39538;52.196;9.892;2022-08-03T09:59:09;100591.28;;;34.88;34.06
16694;BME280;39538;52.196;9.892;2022-08-03T10:01:36;100588.94;;;35.22;33.54
16694;BME280;39538;52.196;9.892;2022-08-03T10:04:10;100585.41;;;35.47;33.42
16694;BME280;39538;52.196;9.892;2022-08-03T10:06:38;100580.78;;;35.73;32.19
16694;BME280;39538;52.196;9.892;2022-08-03T10:09:08;100579.72;;;36.00;31.46
16694;BME280;39538;52.196;9.892;2022-08-03T10:11:35;100571.44;;;36.00;31.70
16694;BME280;39538;52.196;9.892;2022-08-03T10:14:03;100578.31;;;35.92;31.50
16694;BME280;39538;52.196;9.892;2022-08-03T10:16:32;100573.63;;;36.13;30.51
16694;BME280;39538;52.196;9.892;2022-08-03T10:18:59;100575.56;;;36.28;30.32
16694;BME280;39538;52.196;9.892;2022-08-03T10:21:28;100568.41;;;36.12;31.17
16694;BME280;39538;52.196;9.892;2022-08-03T10:23:57;100578.31;;;36.48;30.51
16694;BME280;39538;52.196;9.892;2022-08-03T10:26:26;100571.69;;;35.62;29.54
16694;BME280;39538;52.196;9.892;2022-08-03T10:28:59;100568.63;;;35.64;30.63
16694;BME280;39538;52.196;9.892;2022-08-03T10:31:32;100569.50;;;36.16;30.43
16694;BME280;39538;52.196;9.892;2022-08-03T10:34:01;100568.75;;;35.06;31.02
16694;BME280;39538;52.196;9.892;2022-08-03T10:36:30;100568.91;;;35.78;29.92
16694;BME280;39538;52.196;9.892;2022-08-03T10:38:59;100564.38;;;35.15;30.01
16694;BME280;39538;52.196;9.892;2022-08-03T10:41:36;100556.25;;;34.88;30.72
16694;BME280;39538;52.196;9.892;2022-08-03T10:44:08;100553.81;;;34.97;30.62
16694;BME280;39538;52.196;9.892;2022-08-03T10:46:36;100550.06;;;36.72;30.67
16694;BME280;39538;52.196;9.892;2022-08-03T10:49:04;100558.72;;;37.60;28.44
16694;BME280;39538;52.196;9.892;2022-08-03T10:51:31;100556.84;;;37.89;27.68
16694;BME280;39538;52.196;9.892;2022-08-03T10:53:59;100559.13;;;38.94;26.68
16694;BME280;39538;52.196;9.892;2022-08-03T10:56:40;100558.19;;;39.41;26.33
16694;BME280;39538;52.196;9.892;2022-08-03T10:59:58;100547.22;;;37.82;27.69
16694;BME280;39538;52.196;9.892;2022-08-03T11:03:04;100554.66;;;37.47;26.58
16694;BME280;39538;52.196;9.892;2022-08-03T11:05:34;100550.88;;;38.06;27.59
16694;BME280;39538;52.196;9.892;2022-08-03T11:08:21;100547.50;;;38.38;27.60
16694;BME280;39538;52.196;9.892;2022-08-03T11:10:48;100540.22;;;38.96;26.42
16694;BME280;39538;52.196;9.892;2022-08-03T11:13:19;100550.16;;;39.40;25.52
16694;BME280;39538;52.196;9.892;2022-08-03T11:15:49;100543.88;;;39.67;25.46
16694;BME280;39538;52.196;9.892;2022-08-03T11:18:16;100548.50;;;39.91;24.78
16694;BME280;39538;52.196;9.892;2022-08-03T11:20:44;100551.53;;;39.94;25.64
16694;BME280;39538;52.196;9.892;2022-08-03T11:23:12;100551.09;;;39.30;25.53
16694;BME280;39538;52.196;9.892;2022-08-03T11:26:07;100550.16;;;39.21;25.95
16694;BME280;39538;52.196;9.892;2022-08-03T11:28:35;100542.97;;;39.91;25.59
16694;BME280;39538;52.196;9.892;2022-08-03T11:34:03;100534.16;;;40.16;24.32
16694;BME280;39538;52.196;9.892;2022-08-03T11:36:30;100543.72;;;40.71;24.25
16694;BME280;39538;52.196;9.892;2022-08-03T11:39:17;100539.13;;;41.02;23.35
16694;BME280;39538;52.196;9.892;2022-08-03T11:41:43;100536.22;;;40.24;24.65
16694;BME280;39538;52.196;9.892;2022-08-03T11:44:40;100540.75;;;40.20;25.50
16694;BME280;39538;52.196;9.892;2022-08-03T11:47:09;100525.91;;;40.11;23.51
16694;BME280;39538;52.196;9.892;2022-08-03T11:49:40;100520.56;;;37.02;27.17
16694;BME280;39538;52.196;9.892;2022-08-03T11:52:07;100521.75;;;36.90;27.87
16694;BME280;39538;52.196;9.892;2022-08-03T11:54:34;100533.16;;;38.61;26.46
16694;BME280;39538;52.196;9.892;2022-08-03T11:57:01;100531.97;;;39.99;24.82
16694;BME280;39538;52.196;9.892;2022-08-03T11:59:32;100529.84;;;40.10;25.05
16694;BME280;39538;52.196;9.892;2022-08-03T12:02:05;100539.25;;;40.42;24.34
16694;BME280;39538;52.196;9.892;2022-08-03T12:04:48;100538.66;;;41.37;23.70
16694;BME280;39538;52.196;9.892;2022-08-03T12:07:15;100542.81;;;41.25;23.60
16694;BME280;39538;52.196;9.892;2022-08-03T12:09:42;100541.31;;;42.09;23.38
16694;BME280;39538;52.196;9.892;2022-08-03T12:12:08;100532.69;;;42.68;23.13
16694;BME280;39538;52.196;9.892;2022-08-03T12:14:36;100530.41;;;42.79;22.39
16694;BME280;39538;52.196;9.892;2022-08-03T12:17:03;100526.03;;;42.07;22.66
16694;BME280;39538;52.196;9.892;2022-08-03T12:19:40;100535.25;;;40.76;23.39
16694;BME280;39538;52.196;9.892;2022-08-03T12:22:07;100533.84;;;41.51;23.02
16694;BME280;39538;52.196;9.892;2022-08-03T12:24:39;100524.88;;;41.54;22.98
16694;BME280;39538;52.196;9.892;2022-08-03T12:27:06;100528.16;;;41.79;23.01
16694;BME280;39538;52.196;9.892;2022-08-03T12:29:33;100517.47;;;40.16;24.13
16694;BME280;39538;52.196;9.892;2022-08-03T12:32:00;100508.47;;;40.80;24.26
16694;BME280;39538;52.196;9.892;2022-08-03T12:34:45;100514.09;;;40.19;24.65
16694;BME280;39538;52.196;9.892;2022-08-03T12:37:11;100510.09;;;40.26;24.18
16694;BME280;39538;52.196;9.892;2022-08-03T12:39:38;100514.34;;;40.37;25.19
16694;BME280;39538;52.196;9.892;2022-08-03T12:42:04;100509.22;;;39.97;25.18
16694;BME280;39538;52.196;9.892;2022-08-03T12:44:31;100510.00;;;40.58;24.67
16694;BME280;39538;52.196;9.892;2022-08-03T12:47:00;100512.44;;;41.38;24.05
16694;BME280;39538;52.196;9.892;2022-08-03T12:49:27;100500.97;;;41.84;24.02
16694;BME280;39538;52.196;9.892;2022-08-03T12:51:55;100494.25;;;40.40;25.12
16694;BME280;39538;52.196;9.892;2022-08-03T12:54:23;100496.94;;;40.31;25.16
16694;BME280;39538;52.196;9.892;2022-08-03T12:56:57;100500.25;;;40.47;24.19
16694;BME280;39538;52.196;9.892;2022-08-03T12:59:26;100498.69;;;40.69;24.56
16694;BME280;39538;52.196;9.892;2022-08-03T13:01:52;100509.00;;;40.40;24.15